Time;durP1;ratioP1;P1;durP2;ratioP2;P2;SDS_P1;SDS_P2;PMS_P1;PMS_P2;Temp;Humidity;BMP_temperature;BMP_pressure;BME280_temperature;BME280_humidity;BME280_pressure;Samples;Min_cycle;Max_cycle;Signal;HPM_P1;HPM_P2
2022/04/29 00:01:06;;;;;;;11.15;5.13;;;;;;;7.72;89.98;103020.75;5051711;28;20053;-48
2022/04/29 00:03:35;;;;;;;10.50;4.32;;;;;;;7.71;91.07;103024.25;5051338;28;20139;-48
2022/04/29 00:06:03;;;;;;;12.20;4.90;;;;;;;7.64;91.18;103025.25;5051803;28;20047;-50
2022/04/29 00:08:32;;;;;;;12.65;5.03;;;;;;;7.61;91.37;103019.16;5051286;28;20037;-49
2022/04/29 00:11:00;;;;;;;12.13;4.95;;;;;;;7.57;91.11;103021.88;5051832;28;20087;-52
2022/04/29 00:13:30;;;;;;;12.77;5.88;;;;;;;7.50;91.10;103018.50;5051387;28;20041;-51
2022/04/29 00:15:58;;;;;;;15.38;5.25;;;;;;;7.47;91.80;103020.31;5051312;28;20053;-51
2022/04/29 00:18:27;;;;;;;11.48;4.70;;;;;;;7.39;92.72;103009.94;5050622;28;20053;-49
2022/04/29 00:20:55;;;;;;;11.90;5.50;;;;;;;7.42;92.43;103015.16;5047461;28;20107;-50
2022/04/29 00:23:23;;;;;;;9.95;4.60;;;;;;;7.40;92.37;103009.97;5049696;28;20041;-53
2022/04/29 00:25:51;;;;;;;11.50;4.95;;;;;;;7.47;92.67;103000.22;5050055;28;20128;-54
2022/04/29 00:28:20;;;;;;;12.75;5.38;;;;;;;7.49;92.39;102997.59;5046718;28;20056;-52
2022/04/29 00:30:50;;;;;;;10.50;5.05;;;;;;;7.45;92.75;102996.78;5047983;28;20075;-50
2022/04/29 00:33:18;;;;;;;12.30;5.43;;;;;;;7.48;92.31;102990.63;5051195;28;20052;-50
2022/04/29 00:35:46;;;;;;;10.82;5.10;;;;;;;7.25;92.91;102995.38;5048825;28;20397;-50
2022/04/29 00:38:16;;;;;;;12.85;5.85;;;;;;;7.28;93.02;102986.59;5047604;28;20476;-48
2022/04/29 00:40:45;;;;;;;12.18;5.43;;;;;;;7.25;93.24;102987.53;5050114;28;20407;-52
2022/04/29 00:43:13;;;;;;;12.73;6.10;;;;;;;7.20;93.76;102991.97;5050871;28;20076;-48
2022/04/29 00:45:42;;;;;;;23.83;9.48;;;;;;;7.27;93.75;102993.56;5050824;28;20049;-48
2022/04/29 00:48:12;;;;;;;11.15;5.63;;;;;;;7.20;93.86;102986.72;5051102;28;20048;-52
2022/04/29 00:50:40;;;;;;;14.45;6.40;;;;;;;7.13;93.93;102990.34;5050921;28;20072;-51
2022/04/29 00:53:11;;;;;;;12.30;5.93;;;;;;;7.08;94.67;102992.16;5050675;28;20115;-49
2022/04/29 00:55:41;;;;;;;13.70;5.90;;;;;;;7.12;94.17;102993.84;5050162;28;20059;-51
2022/04/29 00:58:16;;;;;;;12.00;6.05;;;;;;;7.05;95.43;102985.22;5049038;28;20049;-49
2022/04/29 01:00:45;;;;;;;11.32;6.00;;;;;;;7.06;95.75;102988.69;5046930;28;20179;-52
2022/04/29 01:03:16;;;;;;;12.57;5.95;;;;;;;7.08;94.88;102994.78;5050620;28;20045;-49
2022/04/29 01:05:44;;;;;;;15.93;5.75;;;;;;;7.05;95.76;102990.47;5047622;28;20432;-47
2022/04/29 01:08:13;;;;;;;13.93;6.65;;;;;;;7.00;95.88;102980.97;5046970;28;20480;-52
2022/04/29 01:10:41;;;;;;;14.68;6.55;;;;;;;7.01;95.24;102980.03;5050741;28;20053;-50
2022/04/29 01:13:10;;;;;;;11.07;5.82;;;;;;;6.97;95.70;102976.63;5050812;28;20472;-50
2022/04/29 01:15:39;;;;;;;14.88;6.70;;;;;;;6.90;96.04;102982.88;5048531;28;20467;-49
2022/04/29 01:18:09;;;;;;;13.75;7.22;;;;;;;6.81;96.36;102975.16;5045973;28;21206;-49
2022/04/29 01:20:39;;;;;;;11.77;6.40;;;;;;;6.81;96.73;102972.53;5050826;28;20075;-51
2022/04/29 01:23:11;;;;;;;13.30;6.50;;;;;;;6.83;97.17;102969.00;5050929;28;20053;-51
2022/04/29 01:25:40;;;;;;;13.95;6.40;;;;;;;6.81;97.20;102970.78;5050828;28;20106;-49
2022/04/29 01:28:08;;;;;;;13.95;6.32;;;;;;;6.83;96.91;102965.50;5051081;28;20053;-48
2022/04/29 01:30:39;;;;;;;14.02;6.70;;;;;;;6.80;97.23;102965.56;5047743;28;20079;-48
2022/04/29 01:33:10;;;;;;;13.90;7.25;;;;;;;6.73;98.07;102962.19;5047318;28;20053;-50
2022/04/29 01:35:39;;;;;;;12.43;7.22;;;;;;;6.68;98.46;102961.38;5051495;28;20052;-52
2022/04/29 01:38:09;;;;;;;14.93;7.15;;;;;;;6.79;98.16;102958.59;5053932;28;20119;-48
2022/04/29 01:40:37;;;;;;;13.73;7.30;;;;;;;6.59;98.16;102951.94;5054093;28;20499;-53
2022/04/29 01:43:05;;;;;;;13.07;6.65;;;;;;;6.54;98.64;102948.53;5054449;28;20051;-45
2022/04/29 01:45:34;;;;;;;14.32;7.28;;;;;;;6.59;98.66;102947.56;5054239;28;20372;-47
2022/04/29 01:48:02;;;;;;;15.27;7.85;;;;;;;6.45;99.34;102941.69;5054145;28;20075;-48
2022/04/29 01:50:31;;;;;;;13.18;7.18;;;;;;;6.47;99.84;102952.97;5054070;28;20061;-49
2022/04/29 01:52:59;;;;;;;15.80;7.20;;;;;;;6.47;99.83;102950.34;5052725;28;20426;-49
2022/04/29 01:55:29;;;;;;;17.35;7.70;;;;;;;6.47;99.29;102949.50;5054226;28;20403;-48
2022/04/29 01:57:57;;;;;;;13.35;7.15;;;;;;;6.46;99.59;102950.38;5054024;28;20091;-50
2022/04/29 02:00:26;;;;;;;17.58;8.30;;;;;;;6.39;100.00;102946.97;5053613;28;20110;-49
2022/04/29 02:02:55;;;;;;;17.38;8.45;;;;;;;6.37;100.00;102952.25;5053713;28;20103;-49
2022/04/29 02:05:24;;;;;;;13.77;7.22;;;;;;;6.40;100.00;102946.09;5054016;28;20045;-51
2022/04/29 02:07:53;;;;;;;18.17;7.28;;;;;;;6.38;100.00;102942.63;5053614;28;20049;-50
2022/04/29 02:10:21;;;;;;;15.57;7.45;;;;;;;6.43;100.00;102935.59;5053554;28;20064;-51
2022/04/29 02:12:51;;;;;;;14.70;7.18;;;;;;;6.36;100.00;102940.03;5052691;28;20028;-48
2022/04/29 02:15:20;;;;;;;15.32;7.45;;;;;;;6.42;100.00;102939.97;5050250;28;20036;-47
2022/04/29 02:17:48;;;;;;;15.05;7.65;;;;;;;6.32;100.00;102940.97;5051653;28;20057;-51
2022/04/29 02:20:16;;;;;;;17.63;8.13;;;;;;;6.38;100.00;102948.75;5053360;28;20377;-48
2022/04/29 02:22:45;;;;;;;15.30;7.50;;;;;;;6.22;100.00;102948.09;5052991;28;20044;-51
2022/04/29 02:25:13;;;;;;;17.70;8.15;;;;;;;6.28;100.00;102941.06;5051706;28;20107;-51
2022/04/29 02:27:42;;;;;;;15.25;7.63;;;;;;;6.33;100.00;102941.84;5053223;28;20041;-52
2022/04/29 02:30:13;;;;;;;16.55;8.15;;;;;;;6.30;100.00;102936.66;5053750;28;21060;-50
2022/04/29 02:32:42;;;;;;;17.38;7.85;;;;;;;6.17;100.00;102928.13;5053721;28;20554;-49
2022/04/29 02:35:10;;;;;;;15.15;7.65;;;;;;;6.16;100.00;102932.50;5053415;28;20123;-51
2022/04/29 02:37:39;;;;;;;18.83;8.88;;;;;;;6.15;100.00;102946.44;5052984;28;20052;-50
2022/04/29 02:40:08;;;;;;;18.98;8.30;;;;;;;6.18;100.00;102950.78;5049473;28;20033;-49
2022/04/29 02:42:36;;;;;;;15.63;8.10;;;;;;;6.11;100.00;102936.03;5049149;28;20053;-49
2022/04/29 02:45:06;;;;;;;13.07;8.00;;;;;;;6.18;100.00;102940.31;5051652;28;20048;-51
2022/04/29 02:47:35;;;;;;;17.63;7.88;;;;;;;6.16;100.00;102939.47;5051913;28;20098;-51
2022/04/29 02:50:04;;;;;;;18.52;8.05;;;;;;;6.11;100.00;102934.31;5052900;28;20361;-53
2022/04/29 02:52:33;;;;;;;16.98;7.97;;;;;;;6.12;100.00;102941.22;5053019;28;20099;-53
2022/04/29 02:55:01;;;;;;;16.90;8.85;;;;;;;6.10;100.00;102937.78;5052716;28;20076;-51
2022/04/29 02:57:29;;;;;;;19.85;8.15;;;;;;;6.09;100.00;102943.91;5052891;28;20404;-49
2022/04/29 02:59:58;;;;;;;18.58;7.85;;;;;;;6.07;100.00;102938.69;5050120;28;20057;-52
2022/04/29 03:02:26;;;;;;;20.25;8.25;;;;;;;6.10;100.00;102932.56;5049240;28;20068;-52
2022/04/29 03:04:56;;;;;;;17.05;8.57;;;;;;;6.09;100.00;102930.84;5052988;28;20506;-51
2022/04/29 03:07:24;;;;;;;16.45;8.20;;;;;;;6.02;100.00;102932.66;5052668;28;20048;-51
2022/04/29 03:09:53;;;;;;;18.60;8.27;;;;;;;6.06;100.00;102936.97;5052318;28;20045;-48
2022/04/29 03:12:23;;;;;;;16.45;7.78;;;;;;;6.00;100.00;102915.28;5052738;28;20437;-49
2022/04/29 03:14:51;;;;;;;20.80;8.35;;;;;;;6.03;100.00;102926.56;5052614;28;20143;-49
2022/04/29 03:20:11;;;;;;;20.88;8.55;;;;;;;5.95;100.00;102925.75;5032908;28;20064;-49
2022/04/29 03:22:39;;;;;;;14.75;8.05;;;;;;;6.01;100.00;102919.63;5048751;28;20055;-50
2022/04/29 03:25:09;;;;;;;23.33;8.45;;;;;;;5.99;100.00;102906.59;5051781;28;20496;-48
2022/04/29 03:27:37;;;;;;;20.60;8.98;;;;;;;6.05;100.00;102930.03;5052282;28;20052;-49
2022/04/29 03:30:06;;;;;;;20.38;8.90;;;;;;;6.04;100.00;102933.50;5052655;28;20518;-48
2022/04/29 03:32:35;;;;;;;19.27;8.07;;;;;;;6.04;100.00;102915.22;5052176;28;20056;-52
2022/04/29 03:35:03;;;;;;;15.27;7.65;;;;;;;5.99;100.00;102911.81;5052124;28;20075;-50
2022/04/29 03:37:33;;;;;;;16.95;8.07;;;;;;;6.03;100.00;102912.63;5052327;28;20053;-51
2022/04/29 03:40:01;;;;;;;16.27;7.95;;;;;;;6.01;100.00;102904.81;5051880;28;20041;-52
2022/04/29 03:42:30;;;;;;;19.67;8.40;;;;;;;5.96;100.00;102908.31;5051079;28;20057;-51
2022/04/29 03:44:58;;;;;;;16.90;7.65;;;;;;;6.07;100.00;102909.97;5048311;28;20053;-48
2022/04/29 03:47:27;;;;;;;20.23;8.52;;;;;;;5.92;100.00;102907.53;5050225;28;20626;-51
2022/04/29 03:49:56;;;;;;;18.80;8.57;;;;;;;5.95;100.00;102906.63;5051787;28;20113;-51
2022/04/29 03:52:25;;;;;;;18.88;8.27;;;;;;;5.92;100.00;102907.53;5051449;28;20052;-49
2022/04/29 03:54:56;;;;;;;15.75;7.78;;;;;;;5.85;100.00;102917.19;5051204;28;20037;-50
2022/04/29 03:57:24;;;;;;;16.17;7.72;;;;;;;5.91;100.00;102908.41;5051438;28;20456;-50
2022/04/29 03:59:52;;;;;;;21.30;8.50;;;;;;;5.88;100.00;102903.22;5050799;28;20570;-49
2022/04/29 04:02:21;;;;;;;18.48;8.07;;;;;;;5.93;100.00;102891.81;5049527;28;20095;-49
2022/04/29 04:04:49;;;;;;;15.82;7.85;;;;;;;5.87;100.00;102863.16;5047474;28;20060;-49
2022/04/29 04:07:18;;;;;;;16.77;8.00;;;;;;;5.84;100.00;102868.44;5051371;28;20060;-47
2022/04/29 04:09:46;;;;;;;14.98;7.22;;;;;;;5.81;100.00;102867.59;5051301;28;20051;-50
2022/04/29 04:12:16;;;;;;;14.45;7.90;;;;;;;5.75;100.00;102871.16;5051818;28;20111;-52
2022/04/29 04:14:45;;;;;;;21.58;8.70;;;;;;;5.75;100.00;102873.75;5051971;28;20052;-47
2022/04/29 04:17:13;;;;;;;19.08;8.65;;;;;;;5.82;100.00;102875.44;5048560;28;20534;-51
2022/04/29 04:19:41;;;;;;;17.95;8.32;;;;;;;5.83;100.00;102879.75;5046184;28;20045;-51
2022/04/29 04:22:11;;;;;;;13.88;7.45;;;;;;;5.85;100.00;102883.22;5050186;28;20049;-52
2022/04/29 04:24:39;;;;;;;14.95;7.65;;;;;;;5.80;100.00;102882.41;5047678;28;21071;-49
2022/04/29 04:27:07;;;;;;;24.85;8.27;;;;;;;5.79;100.00;102883.28;5048805;28;20041;-52
2022/04/29 04:29:37;;;;;;;16.23;8.40;;;;;;;5.80;100.00;102884.16;5051211;28;20528;-49
2022/04/29 04:32:07;;;;;;;20.00;8.35;;;;;;;5.86;100.00;102882.34;5051486;28;20128;-50
2022/04/29 04:34:53;;;;;;;20.02;7.82;;;;;;;5.88;100.00;102890.16;5051284;28;20049;-53
2022/04/29 04:37:23;;;;;;;23.10;8.77;;;;;;;5.79;100.00;102885.91;5049476;28;20049;-50
2022/04/29 04:39:52;;;;;;;17.38;8.95;;;;;;;5.80;100.00;102885.03;5047543;28;20056;-51
2022/04/29 04:42:22;;;;;;;17.80;8.05;;;;;;;5.76;100.00;102884.19;5050782;28;20075;-50
2022/04/29 04:44:54;;;;;;;19.70;8.73;;;;;;;5.77;100.00;102877.25;5051378;28;20557;-49
2022/04/29 04:47:23;;;;;;;16.83;7.70;;;;;;;5.79;100.00;102883.28;5050732;28;20142;-51
2022/04/29 04:49:51;;;;;;;16.90;7.65;;;;;;;5.81;100.00;102878.03;5050949;28;20041;-51
2022/04/29 04:52:19;;;;;;;18.83;7.78;;;;;;;5.85;100.00;102883.22;5051456;28;20052;-54
2022/04/29 04:54:48;;;;;;;16.90;7.57;;;;;;;5.83;100.00;102884.97;5051318;28;20041;-53
2022/04/29 04:57:16;;;;;;;19.40;8.13;;;;;;;5.89;100.00;102881.41;5051377;28;20048;-52
2022/04/29 04:59:44;;;;;;;16.63;7.82;;;;;;;5.98;100.00;102881.34;5050944;28;20051;-50
2022/04/29 05:02:14;;;;;;;18.35;7.85;;;;;;;5.93;100.00;102881.38;5051366;28;20051;-50
2022/04/29 05:04:43;;;;;;;16.77;8.00;;;;;;;5.91;100.00;102877.91;5051152;28;20072;-50
2022/04/29 05:07:11;;;;;;;19.48;8.18;;;;;;;5.91;100.00;102877.91;5047938;28;20045;-48
2022/04/29 05:09:40;;;;;;;17.58;8.05;;;;;;;5.99;100.00;102877.84;5047140;28;20057;-49
2022/04/29 05:12:11;;;;;;;14.27;7.97;;;;;;;5.92;100.00;102884.88;5054194;28;20059;-50
2022/04/29 05:14:39;;;;;;;17.20;8.23;;;;;;;5.93;100.00;102885.72;5053985;28;20037;-48
2022/04/29 05:17:08;;;;;;;20.73;7.97;;;;;;;5.97;100.00;102882.22;5051261;28;20049;-52
2022/04/29 05:19:37;;;;;;;15.50;7.95;;;;;;;5.93;100.00;102881.38;5053048;28;20407;-50
2022/04/29 05:22:06;;;;;;;15.57;8.00;;;;;;;5.99;100.00;102892.66;5051373;28;20041;-48
2022/04/29 05:24:34;;;;;;;18.63;7.90;;;;;;;6.10;100.00;102896.00;5051478;28;20163;-51
2022/04/29 05:27:03;;;;;;;17.67;8.15;;;;;;;6.03;100.00;102910.03;5054785;28;20384;-47
2022/04/29 05:29:31;;;;;;;16.60;7.82;;;;;;;6.07;100.00;102904.72;5052889;28;20737;-48
2022/04/29 05:32:00;;;;;;;15.77;8.20;;;;;;;6.08;100.00;102906.47;5050408;28;20490;-48
2022/04/29 05:34:29;;;;;;;17.50;8.80;;;;;;;6.04;100.00;102902.16;5053719;28;20127;-55
2022/04/29 05:36:58;;;;;;;17.92;8.07;;;;;;;6.01;100.00;102904.81;5054388;28;20057;-50
2022/04/29 05:42:15;;;;;;;14.90;8.05;;;;;;;6.11;100.00;102902.94;5054266;28;20087;-52
2022/04/29 05:44:45;;;;;;;20.05;9.13;;;;;;;6.06;100.00;102900.38;5050837;28;20110;-50
2022/04/29 05:47:14;;;;;;;19.20;9.35;;;;;;;6.06;100.00;102903.00;5049950;28;20553;-49
2022/04/29 05:49:42;;;;;;;20.42;7.95;;;;;;;6.08;100.00;102906.47;5053877;28;20057;-47
2022/04/29 05:52:13;;;;;;;19.67;8.65;;;;;;;6.14;100.00;102910.75;5052747;28;20052;-48
2022/04/29 05:54:41;;;;;;;15.82;8.73;;;;;;;6.19;100.00;102910.66;5050546;28;20110;-51
2022/04/29 05:57:11;;;;;;;17.58;8.13;;;;;;;6.20;100.00;102905.44;5052974;28;21021;-48
2022/04/29 05:59:40;;;;;;;16.83;8.60;;;;;;;6.23;100.00;102908.00;5053694;28;20033;-52
2022/04/29 06:02:09;;;;;;;19.77;8.45;;;;;;;6.24;100.00;102911.47;5054399;28;20045;-50
2022/04/29 06:04:38;;;;;;;18.67;9.00;;;;;;;6.25;100.00;102897.53;5053572;28;20127;-51
2022/04/29 06:07:06;;;;;;;18.10;8.25;;;;;;;6.38;100.00;102898.19;5054048;28;20597;-49
2022/04/29 06:09:36;;;;;;;18.95;7.78;;;;;;;6.42;100.00;102900.75;5053515;28;20392;-53
2022/04/29 06:12:06;;;;;;;18.90;8.02;;;;;;;6.40;100.00;102899.06;5048840;28;20120;-50
2022/04/29 06:14:35;;;;;;;18.83;8.50;;;;;;;6.44;100.00;102908.59;5050445;28;20459;-50
2022/04/29 06:17:04;;;;;;;23.67;8.32;;;;;;;6.44;100.00;102911.19;5053248;28;20057;-50
2022/04/29 06:19:33;;;;;;;15.55;8.43;;;;;;;6.52;100.00;102905.88;5053611;28;20527;-50
2022/04/29 06:22:01;;;;;;;18.17;7.72;;;;;;;6.55;100.00;102904.03;5050443;28;20065;-50
2022/04/29 06:24:29;;;;;;;19.55;7.85;;;;;;;6.52;100.00;102906.72;5049917;28;20053;-49
2022/04/29 06:27:19;;;;;;;17.30;7.88;;;;;;;6.56;100.00;102911.00;5051682;28;20055;-47
2022/04/29 06:29:47;;;;;;;14.77;7.75;;;;;;;6.60;100.00;102919.69;5050962;28;20698;-48
2022/04/29 06:32:16;;;;;;;16.48;8.18;;;;;;;6.67;100.00;102917.84;5049269;28;20103;-48
2022/04/29 06:34:44;;;;;;;17.08;8.38;;;;;;;6.75;100.00;102916.81;5052022;28;20099;-50
2022/04/29 06:37:12;;;;;;;19.00;7.93;;;;;;;6.74;100.00;102914.22;5052714;28;20037;-52
2022/04/29 06:39:41;;;;;;;19.15;10.02;;;;;;;6.84;100.00;102921.03;5052928;28;20056;-54
2022/04/29 06:42:10;;;;;;;21.23;8.43;;;;;;;6.85;100.00;102925.38;5052679;28;20037;-47
2022/04/29 06:44:40;;;;;;;15.98;7.80;;;;;;;6.91;100.00;102924.41;5050674;28;20045;-51
2022/04/29 06:47:08;;;;;;;15.30;8.10;;;;;;;7.00;100.00;102921.63;5049033;28;20045;-51
2022/04/29 06:49:37;;;;;;;15.70;7.63;;;;;;;7.05;100.00;102925.03;5051508;28;20052;-47
2022/04/29 06:52:06;;;;;;;16.13;8.25;;;;;;;7.06;100.00;102931.13;5052923;28;20369;-46
2022/04/29 06:54:34;;;;;;;20.02;8.32;;;;;;;7.05;100.00;102932.03;5052865;28;20049;-48
2022/04/29 06:57:03;;;;;;;18.00;8.40;;;;;;;7.12;100.00;102925.81;5052702;28;20044;-51
2022/04/29 06:59:31;;;;;;;16.95;7.38;;;;;;;7.24;100.00;102927.31;5050211;28;20045;-48
2022/04/29 07:02:04;;;;;;;20.83;8.00;;;;;;;7.24;100.00;102925.59;5048284;28;20053;-50
2022/04/29 07:04:32;;;;;;;14.73;7.55;;;;;;;7.40;100.00;102927.91;5052327;28;20384;-50
2022/04/29 07:07:01;;;;;;;15.05;7.05;;;;;;;7.48;100.00;102933.03;5052798;28;20045;-51
2022/04/29 07:09:36;;;;;;;24.10;8.35;;;;;;;7.62;100.00;102930.97;5053021;28;20507;-49
2022/04/29 07:12:24;;;;;;;20.73;8.60;;;;;;;7.68;100.00;102930.88;5047958;28;20045;-50
2022/04/29 07:14:53;;;;;;;14.50;7.25;;;;;;;7.70;100.00;102928.22;5048960;28;20095;-49
2022/04/29 07:17:23;;;;;;;15.85;7.30;;;;;;;7.89;99.52;102926.09;5052741;28;20458;-47
2022/04/29 07:19:52;;;;;;;16.80;8.05;;;;;;;7.99;99.30;102926.75;5052648;28;20049;-49
2022/04/29 07:22:28;;;;;;;14.73;7.55;;;;;;;8.06;99.58;102928.38;5052521;28;20063;-51
2022/04/29 07:24:56;;;;;;;15.45;6.95;;;;;;;8.11;97.77;102924.75;5052168;28;20052;-53
2022/04/29 07:27:25;;;;;;;16.98;7.40;;;;;;;8.22;97.28;102926.25;5052222;28;20060;-52
2022/04/29 07:29:54;;;;;;;14.30;6.88;;;;;;;8.10;98.07;102928.28;5052689;28;20095;-50
2022/04/29 07:32:25;;;;;;;15.43;6.65;;;;;;;8.22;97.28;102929.78;5052427;28;20408;-50
2022/04/29 07:43:12;;;;;;;16.42;7.13;;;;;;;8.67;95.66;102938.41;5052282;28;20072;-54
2022/04/29 07:45:42;;;;;;;16.05;7.03;;;;;;;8.91;94.28;102929.94;5052193;28;20041;-53
2022/04/29 07:48:12;;;;;;;16.40;7.00;;;;;;;8.96;93.30;102938.56;5047710;28;20071;-50
2022/04/29 07:50:40;;;;;;;15.88;7.22;;;;;;;9.03;92.86;102938.41;5048057;28;20061;-51
2022/04/29 07:53:09;;;;;;;17.55;7.68;;;;;;;9.18;93.21;102938.00;5052485;28;20071;-52
2022/04/29 07:55:39;;;;;;;15.40;7.15;;;;;;;9.27;92.25;102932.53;5050016;28;20049;-48
2022/04/29 07:58:08;;;;;;;13.27;7.10;;;;;;;9.36;91.43;102936.66;5046570;28;20055;-51
2022/04/29 08:00:38;;;;;;;15.52;6.60;;;;;;;9.49;90.47;102937.22;5050919;28;20205;-49
2022/04/29 08:03:28;;;;;;;12.98;6.28;;;;;;;9.69;89.40;102938.41;5050587;28;20056;-53
2022/04/29 08:05:57;;;;;;;15.23;7.18;;;;;;;9.89;90.14;102927.34;5048363;28;20866;-52
2022/04/29 08:08:25;;;;;;;15.95;6.60;;;;;;;10.06;87.68;102930.34;5050432;28;20056;-51
2022/04/29 08:10:53;;;;;;;12.90;6.50;;;;;;;10.24;87.63;102938.53;5048350;28;20088;-52
2022/04/29 08:13:22;;;;;;;15.15;6.30;;;;;;;10.28;86.05;102940.19;5046617;28;20081;-49
2022/04/29 08:15:51;;;;;;;18.17;6.70;;;;;;;10.53;84.74;102937.69;5051734;28;20060;-48
2022/04/29 08:18:20;;;;;;;15.27;6.20;;;;;;;10.71;83.97;102944.13;5051983;28;20584;-49
2022/04/29 08:20:49;;;;;;;17.55;6.85;;;;;;;10.85;83.44;102946.31;5048815;28;20072;-53
2022/04/29 08:23:18;;;;;;;20.50;6.57;;;;;;;10.94;82.84;102948.63;5047961;28;20052;-52
2022/04/29 08:25:46;;;;;;;9.70;5.43;;;;;;;11.09;81.57;102949.06;5051049;28;20048;-50
2022/04/29 08:28:15;;;;;;;12.50;5.75;;;;;;;11.27;80.91;102956.31;5051309;28;20052;-52
2022/04/29 08:30:43;;;;;;;11.45;6.55;;;;;;;11.31;80.88;102946.53;5051034;28;20055;-50
2022/04/29 08:33:13;;;;;;;13.38;6.07;;;;;;;11.39;79.94;102941.00;5051516;28;20045;-52
2022/04/29 08:35:42;;;;;;;15.52;6.30;;;;;;;11.46;79.41;102937.22;5051120;28;20127;-51
2022/04/29 08:38:12;;;;;;;15.05;5.68;;;;;;;11.56;79.46;102936.00;5047528;28;20127;-52
2022/04/29 08:40:42;;;;;;;19.02;7.20;;;;;;;11.54;78.78;102939.59;5047715;28;20044;-50
2022/04/29 08:43:13;;;;;;;10.40;5.47;;;;;;;11.72;77.81;102933.63;5051240;28;20048;-52
2022/04/29 08:45:43;;;;;;;13.98;6.47;;;;;;;11.59;77.94;102935.00;5054550;28;20049;-52
2022/04/29 08:48:12;;;;;;;16.35;5.95;;;;;;;11.66;77.10;102936.53;5055613;28;20498;-52
2022/04/29 08:50:41;;;;;;;11.48;5.90;;;;;;;11.69;77.49;102940.81;5055404;28;20045;-53
2022/04/29 08:53:09;;;;;;;10.68;6.28;;;;;;;11.75;78.03;102933.56;5055498;28;20491;-52
2022/04/29 08:58:38;;;;;;;11.90;6.18;;;;;;;12.26;75.60;102925.53;5054936;28;20060;-49
2022/04/29 09:01:09;;;;;;;17.00;6.25;;;;;;;12.61;73.50;102934.66;5051651;28;20041;-48
2022/04/29 09:03:39;;;;;;;13.77;5.97;;;;;;;12.82;72.18;102924.16;5051422;28;20045;-51
2022/04/29 09:06:07;;;;;;;13.20;5.95;;;;;;;12.96;72.60;102923.56;5052856;28;20045;-49
2022/04/29 09:08:41;;;;;;;15.77;6.18;;;;;;;13.15;70.89;102931.56;5049890;28;20048;-53
2022/04/29 09:11:12;;;;;;;14.43;6.07;;;;;;;13.04;69.50;102933.81;5053739;28;20049;-50
2022/04/29 09:13:41;;;;;;;18.02;6.40;;;;;;;13.02;69.78;102934.72;5050862;28;20095;-53
2022/04/29 09:16:12;;;;;;;14.63;6.00;;;;;;;13.19;68.88;102931.34;5052422;28;20044;-53
2022/04/29 09:18:43;;;;;;;11.10;5.35;;;;;;;13.42;68.53;102941.91;5054927;28;20067;-52
2022/04/29 09:21:13;;;;;;;10.43;5.07;;;;;;;13.41;65.44;102930.44;5054724;28;20136;-54
2022/04/29 09:23:44;;;;;;;14.43;5.10;;;;;;;13.37;66.47;102928.88;5054527;28;20393;-52
2022/04/29 09:26:22;;;;;;;14.43;5.72;;;;;;;13.30;67.67;102928.25;5054690;28;20505;-53
2022/04/29 09:28:51;;;;;;;13.20;5.80;;;;;;;13.40;68.08;102927.88;5054678;28;20096;-49
2022/04/29 09:31:19;;;;;;;9.45;5.15;;;;;;;13.51;67.61;102931.78;5054526;28;20037;-48
2022/04/29 09:34:07;;;;;;;10.73;6.53;;;;;;;13.74;68.33;102924.56;5054432;28;20047;-53
2022/04/29 09:36:36;;;;;;;15.20;6.15;;;;;;;13.84;66.28;102927.69;5054329;28;20123;-51
2022/04/29 09:41:57;;;;;;;12.32;5.45;;;;;;;14.06;66.29;102927.53;5048759;28;20439;-53
2022/04/29 09:44:30;;;;;;;9.88;5.20;;;;;;;14.12;64.86;102929.03;5052595;28;20048;-52
2022/04/29 09:47:10;;;;;;;12.43;5.70;;;;;;;14.17;64.11;102919.09;5054109;28;20109;-52
2022/04/29 09:49:39;;;;;;;10.13;5.70;;;;;;;14.18;62.71;102920.81;5050736;28;20109;-48
2022/04/29 09:52:08;;;;;;;14.45;5.25;;;;;;;14.36;62.42;102921.72;5051823;28;20045;-51
2022/04/29 09:54:37;;;;;;;13.35;5.80;;;;;;;14.36;61.91;102919.91;5054244;28;20487;-49
2022/04/29 09:57:12;;;;;;;11.18;5.28;;;;;;;14.51;62.33;102912.16;5053433;28;20045;-49
2022/04/29 09:59:42;;;;;;;12.27;6.15;;;;;;;14.62;63.38;102908.97;5054091;28;20450;-50
2022/04/29 10:02:11;;;;;;;12.88;5.78;;;;;;;14.82;63.23;102905.34;5052738;28;20414;-48
2022/04/29 10:04:42;;;;;;;14.18;6.45;;;;;;;14.67;62.94;102912.28;5054177;28;20064;-51
2022/04/29 10:07:13;;;;;;;13.13;6.70;;;;;;;14.88;63.67;102902.41;5054306;28;20041;-47
2022/04/29 10:09:45;;;;;;;15.93;6.50;;;;;;;14.84;63.54;102896.38;5054026;28;20088;-49
2022/04/29 10:12:17;;;;;;;15.70;7.03;;;;;;;15.07;64.07;102899.66;5047951;28;20114;-52
2022/04/29 10:14:47;;;;;;;11.98;6.57;;;;;;;14.93;62.72;102888.91;5050836;28;20056;-48
2022/04/29 10:22:53;;;;;;;15.38;7.13;;;;;;;15.57;60.92;102897.94;5050329;28;20048;-54
2022/04/29 10:25:25;;;;;;;15.68;7.13;;;;;;;15.57;61.99;102897.94;5053931;28;20041;-49
2022/04/29 10:27:55;;;;;;;14.48;6.85;;;;;;;15.69;60.62;102894.63;5053957;28;20059;-48
2022/04/29 10:30:28;;;;;;;12.52;6.53;;;;;;;15.89;60.45;102890.03;5049441;28;20059;-48
2022/04/29 10:33:01;;;;;;;12.07;6.38;;;;;;;15.71;59.85;102895.38;5049492;28;20052;-50
2022/04/29 10:35:56;;;;;;;13.48;6.80;;;;;;;15.52;60.09;102899.97;5053992;28;20499;-50
2022/04/29 10:38:27;;;;;;;11.73;6.40;;;;;;;15.44;61.08;102897.72;5042325;28;20088;-52
2022/04/29 10:41:13;;;;;;;14.38;7.03;;;;;;;15.25;62.07;102897.84;5049298;28;20126;-53
2022/04/29 10:43:46;;;;;;;13.38;6.82;;;;;;;15.53;60.37;102896.41;5053641;28;20463;-50
2022/04/29 10:46:22;;;;;;;13.77;6.07;;;;;;;15.77;58.52;102890.69;5052783;28;20155;-51
2022/04/29 10:48:52;;;;;;;10.38;5.68;;;;;;;15.72;59.04;102905.06;5052732;28;20056;-51
2022/04/29 10:51:22;;;;;;;10.80;5.70;;;;;;;15.62;58.42;102898.53;5053088;28;20047;-51
2022/04/29 10:53:53;;;;;;;11.95;5.82;;;;;;;15.44;58.81;102891.59;5051809;28;20102;-51
2022/04/29 10:56:38;;;;;;;13.27;5.65;;;;;;;15.18;58.91;102891.16;5053402;28;20051;-50
2022/04/29 10:59:21;;;;;;;11.90;6.22;;;;;;;15.10;59.29;102888.06;5053149;28;20139;-49
2022/04/29 11:01:52;;;;;;;11.05;5.72;;;;;;;15.18;58.46;102888.50;5052836;28;20052;-49
2022/04/29 11:04:44;;;;;;;12.55;5.63;;;;;;;15.17;58.73;102890.31;5052924;28;20392;-51
2022/04/29 11:07:36;;;;;;;12.10;5.82;;;;;;;15.16;58.92;102887.72;5052847;28;20109;-51
2022/04/29 11:10:06;;;;;;;12.88;5.50;;;;;;;15.05;58.89;102888.28;5052010;28;20557;-52
2022/04/29 11:12:36;;;;;;;11.05;6.50;;;;;;;15.21;59.40;102883.91;5051929;28;20044;-52
2022/04/29 11:15:11;;;;;;;12.38;6.00;;;;;;;15.15;58.29;102886.03;5048708;28;20053;-49
2022/04/29 11:17:40;;;;;;;14.23;6.30;;;;;;;14.99;58.48;102873.56;5050299;28;20048;-51
2022/04/29 11:20:17;;;;;;;10.95;5.75;;;;;;;14.97;58.71;102875.44;5051700;28;20464;-53
2022/04/29 11:25:53;;;;;;;10.68;5.53;;;;;;;15.42;58.11;102878.41;5048636;28;20068;-52
2022/04/29 11:28:23;;;;;;;11.02;6.15;;;;;;;15.25;58.49;102881.09;5049558;28;20045;-51
2022/04/29 11:31:01;;;;;;;12.48;6.28;;;;;;;15.37;58.37;102881.28;5052497;28;20472;-50
2022/04/29 11:33:30;;;;;;;14.52;6.00;;;;;;;15.28;57.65;102881.78;5052319;28;20094;-49
2022/04/29 11:36:04;;;;;;;12.68;6.03;;;;;;;15.17;57.55;102873.53;5048409;28;20045;-47
2022/04/29 11:38:40;;;;;;;14.18;6.22;;;;;;;15.18;57.17;102876.09;5050532;28;20036;-50
2022/04/29 11:41:08;;;;;;;13.38;5.47;;;;;;;15.24;58.08;102863.47;5052358;28;20041;-52
2022/04/29 11:43:37;;;;;;;11.82;5.57;;;;;;;15.31;57.15;102878.09;5052005;28;20052;-50
2022/04/29 11:46:09;;;;;;;11.63;5.90;;;;;;;15.12;58.70;102871.13;5048760;28;20446;-53
2022/04/29 11:48:37;;;;;;;14.43;5.68;;;;;;;15.23;57.53;102869.69;5049411;28;20072;-52
2022/04/29 11:51:06;;;;;;;11.63;6.05;;;;;;;15.08;59.09;102861.63;5052037;28;20072;-51
2022/04/29 11:53:34;;;;;;;11.93;5.60;;;;;;;15.01;58.99;102871.69;5052332;28;20087;-52
2022/04/29 11:56:03;;;;;;;11.25;6.00;;;;;;;14.96;58.67;102868.44;5047073;28;20052;-52
2022/04/29 11:58:33;;;;;;;14.43;5.65;;;;;;;14.99;59.35;102870.91;5047929;28;20140;-49
2022/04/29 12:01:02;;;;;;;13.90;5.85;;;;;;;14.96;58.37;102865.78;5051619;28;20120;-51